sensor_id;sensor_type;location;lat;lon;timestamp;temperature;humidity
19908;DHT22;10116;53.112;7.356;2022-12-10T00:01:50;24.10;22.30
19908;DHT22;10116;53.112;7.356;2022-12-10T00:04:17;24.10;21.40
19908;DHT22;10116;53.112;7.356;2022-12-10T00:06:43;24.10;21.10
19908;DHT22;10116;53.112;7.356;2022-12-10T00:09:12;24.10;20.90
19908;DHT22;10116;53.112;7.356;2022-12-10T00:11:39;24.10;21.00
19908;DHT22;10116;53.112;7.356;2022-12-10T00:14:05;24.10;20.90
19908;DHT22;10116;53.112;7.356;2022-12-10T00:16:32;24.10;20.90
19908;DHT22;10116;53.112;7.356;2022-12-10T00:18:59;24.10;20.90
19908;DHT22;10116;53.112;7.356;2022-12-10T00:21:27;24.10;20.80
19908;DHT22;10116;53.112;7.356;2022-12-10T00:23:53;24.10;20.70
19908;DHT22;10116;53.112;7.356;2022-12-10T00:26:23;24.10;20.60
19908;DHT22;10116;53.112;7.356;2022-12-10T00:28:50;24.10;20.60
19908;DHT22;10116;53.112;7.356;2022-12-10T00:31:28;24.10;20.50
19908;DHT22;10116;53.112;7.356;2022-12-10T00:33:55;24.10;21.10
19908;DHT22;10116;53.112;7.356;2022-12-10T00:36:23;24.10;19.90
19908;DHT22;10116;53.112;7.356;2022-12-10T00:38:50;24.10;19.90
19908;DHT22;10116;53.112;7.356;2022-12-10T00:41:16;24.10;19.90
19908;DHT22;10116;53.112;7.356;2022-12-10T00:43:42;24.00;19.60
19908;DHT22;10116;53.112;7.356;2022-12-10T00:46:09;24.00;20.00
19908;DHT22;10116;53.112;7.356;2022-12-10T00:48:35;24.00;19.50
19908;DHT22;10116;53.112;7.356;2022-12-10T00:53:29;24.00;19.60
19908;DHT22;10116;53.112;7.356;2022-12-10T00:55:56;24.00;19.30
19908;DHT22;10116;53.112;7.356;2022-12-10T00:58:22;24.00;19.50
19908;DHT22;10116;53.112;7.356;2022-12-10T01:00:48;24.00;19.20
19908;DHT22;10116;53.112;7.356;2022-12-10T01:03:14;24.00;19.10
19908;DHT22;10116;53.112;7.356;2022-12-10T01:05:40;24.00;19.00
19908;DHT22;10116;53.112;7.356;2022-12-10T01:08:06;24.00;19.20
19908;DHT22;10116;53.112;7.356;2022-12-10T01:10:32;24.00;18.90
19908;DHT22;10116;53.112;7.356;2022-12-10T01:12:57;24.00;19.60
19908;DHT22;10116;53.112;7.356;2022-12-10T01:15:23;24.00;18.50
19908;DHT22;10116;53.112;7.356;2022-12-10T01:17:48;24.00;19.00
19908;DHT22;10116;53.112;7.356;2022-12-10T01:20:14;24.00;18.60
19908;DHT22;10116;53.112;7.356;2022-12-10T01:22:39;24.00;19.00
19908;DHT22;10116;53.112;7.356;2022-12-10T01:25:05;24.00;20.80
19908;DHT22;10116;53.112;7.356;2022-12-10T01:27:31;24.00;18.50
19908;DHT22;10116;53.112;7.356;2022-12-10T01:29:56;24.00;18.70
19908;DHT22;10116;53.112;7.356;2022-12-10T01:32:22;23.90;18.30
19908;DHT22;10116;53.112;7.356;2022-12-10T01:34:48;24.00;27.40
19908;DHT22;10116;53.112;7.356;2022-12-10T01:37:13;24.00;18.70
19908;DHT22;10116;53.112;7.356;2022-12-10T01:39:39;24.00;18.00
19908;DHT22;10116;53.112;7.356;2022-12-10T01:42:05;24.00;18.40
19908;DHT22;10116;53.112;7.356;2022-12-10T01:46:58;24.00;17.70
19908;DHT22;10116;53.112;7.356;2022-12-10T01:49:37;24.00;18.30
19908;DHT22;10116;53.112;7.356;2022-12-10T01:52:05;23.90;17.80
19908;DHT22;10116;53.112;7.356;2022-12-10T01:54:37;23.90;17.30
19908;DHT22;10116;53.112;7.356;2022-12-10T01:57:11;23.90;17.40
19908;DHT22;10116;53.112;7.356;2022-12-10T01:59:38;23.90;17.50
19908;DHT22;10116;53.112;7.356;2022-12-10T02:05:13;23.90;17.20
19908;DHT22;10116;53.112;7.356;2022-12-10T02:10:22;23.90;16.90
19908;DHT22;10116;53.112;7.356;2022-12-10T02:15:39;23.90;26.20
19908;DHT22;10116;53.112;7.356;2022-12-10T02:18:19;23.90;17.10
19908;DHT22;10116;53.112;7.356;2022-12-10T02:20:52;23.90;17.00
19908;DHT22;10116;53.112;7.356;2022-12-10T02:23:25;23.90;17.00
19908;DHT22;10116;53.112;7.356;2022-12-10T02:31:19;23.90;16.60
19908;DHT22;10116;53.112;7.356;2022-12-10T02:33:50;23.90;16.50
19908;DHT22;10116;53.112;7.356;2022-12-10T02:36:18;23.80;16.80
19908;DHT22;10116;53.112;7.356;2022-12-10T02:38:45;23.80;17.00
19908;DHT22;10116;53.112;7.356;2022-12-10T02:41:20;23.80;16.90
19908;DHT22;10116;53.112;7.356;2022-12-10T02:43:51;23.80;16.80
19908;DHT22;10116;53.112;7.356;2022-12-10T02:46:17;23.80;16.40
19908;DHT22;10116;53.112;7.356;2022-12-10T02:48:45;23.80;16.50
19908;DHT22;10116;53.112;7.356;2022-12-10T02:51:11;23.80;16.60
19908;DHT22;10116;53.112;7.356;2022-12-10T02:53:44;23.80;15.80
19908;DHT22;10116;53.112;7.356;2022-12-10T02:59:18;23.80;16.60
19908;DHT22;10116;53.112;7.356;2022-12-10T03:01:59;23.80;15.80
19908;DHT22;10116;53.112;7.356;2022-12-10T03:04:44;23.80;16.40
19908;DHT22;10116;53.112;7.356;2022-12-10T03:07:22;23.80;15.90
19908;DHT22;10116;53.112;7.356;2022-12-10T03:09:53;23.80;15.80
19908;DHT22;10116;53.112;7.356;2022-12-10T03:12:25;23.80;15.60
19908;DHT22;10116;53.112;7.356;2022-12-10T03:14:58;23.80;15.60
19908;DHT22;10116;53.112;7.356;2022-12-10T03:17:26;23.80;15.40
19908;DHT22;10116;53.112;7.356;2022-12-10T03:19:55;23.80;15.30
19908;DHT22;10116;53.112;7.356;2022-12-10T03:22:21;23.80;15.10
19908;DHT22;10116;53.112;7.356;2022-12-10T03:24:47;23.80;15.20
19908;DHT22;10116;53.112;7.356;2022-12-10T03:27:14;23.80;15.60
19908;DHT22;10116;53.112;7.356;2022-12-10T03:29:45;23.80;15.60
19908;DHT22;10116;53.112;7.356;2022-12-10T03:32:12;23.70;15.40
19908;DHT22;10116;53.112;7.356;2022-12-10T03:34:38;23.70;15.60
19908;DHT22;10116;53.112;7.356;2022-12-10T03:37:04;23.70;15.00
19908;DHT22;10116;53.112;7.356;2022-12-10T03:39:31;23.70;15.00
19908;DHT22;10116;53.112;7.356;2022-12-10T03:41:57;23.70;15.40
19908;DHT22;10116;53.112;7.356;2022-12-10T03:44:36;23.70;15.00
19908;DHT22;10116;53.112;7.356;2022-12-10T03:47:04;23.70;14.80
19908;DHT22;10116;53.112;7.356;2022-12-10T03:49:30;23.70;14.60
19908;DHT22;10116;53.112;7.356;2022-12-10T03:51:56;23.70;14.80
19908;DHT22;10116;53.112;7.356;2022-12-10T03:54:22;23.70;14.70
19908;DHT22;10116;53.112;7.356;2022-12-10T03:56:48;23.70;14.70
19908;DHT22;10116;53.112;7.356;2022-12-10T03:59:13;23.70;14.70
19908;DHT22;10116;53.112;7.356;2022-12-10T04:01:39;23.70;14.80
19908;DHT22;10116;53.112;7.356;2022-12-10T04:04:05;23.70;14.40
19908;DHT22;10116;53.112;7.356;2022-12-10T04:06:31;23.70;14.10
19908;DHT22;10116;53.112;7.356;2022-12-10T04:08:57;23.70;14.30
19908;DHT22;10116;53.112;7.356;2022-12-10T04:11:23;23.70;14.40
19908;DHT22;10116;53.112;7.356;2022-12-10T04:13:50;23.70;14.80
19908;DHT22;10116;53.112;7.356;2022-12-10T04:16:35;23.70;14.00
19908;DHT22;10116;53.112;7.356;2022-12-10T04:19:08;23.60;13.80
19908;DHT22;10116;53.112;7.356;2022-12-10T04:21:37;23.70;13.90
19908;DHT22;10116;53.112;7.356;2022-12-10T04:24:36;23.70;14.20
19908;DHT22;10116;53.112;7.356;2022-12-10T04:27:40;23.70;13.90
19908;DHT22;10116;53.112;7.356;2022-12-10T04:30:08;23.70;14.10
19908;DHT22;10116;53.112;7.356;2022-12-10T04:32:34;23.70;14.10
19908;DHT22;10116;53.112;7.356;2022-12-10T04:34:59;23.70;14.50
19908;DHT22;10116;53.112;7.356;2022-12-10T04:37:27;23.80;14.70
19908;DHT22;10116;53.112;7.356;2022-12-10T04:39:52;23.80;15.20
19908;DHT22;10116;53.112;7.356;2022-12-10T04:42:19;23.80;15.30
19908;DHT22;10116;53.112;7.356;2022-12-10T04:44:45;23.80;15.40
19908;DHT22;10116;53.112;7.356;2022-12-10T04:47:11;23.90;15.70
19908;DHT22;10116;53.112;7.356;2022-12-10T04:49:37;23.90;15.60
19908;DHT22;10116;53.112;7.356;2022-12-10T04:52:03;23.90;16.90
19908;DHT22;10116;53.112;7.356;2022-12-10T04:54:29;23.90;16.00
19908;DHT22;10116;53.112;7.356;2022-12-10T04:56:55;24.00;16.00
19908;DHT22;10116;53.112;7.356;2022-12-10T04:59:22;24.00;25.20
19908;DHT22;10116;53.112;7.356;2022-12-10T05:01:47;24.00;15.90
19908;DHT22;10116;53.112;7.356;2022-12-10T05:04:16;24.00;16.00
19908;DHT22;10116;53.112;7.356;2022-12-10T05:06:42;24.00;15.60
19908;DHT22;10116;53.112;7.356;2022-12-10T05:09:10;24.00;16.30
19908;DHT22;10116;53.112;7.356;2022-12-10T05:11:35;23.90;15.60
19908;DHT22;10116;53.112;7.356;2022-12-10T05:14:01;23.90;15.70
19908;DHT22;10116;53.112;7.356;2022-12-10T05:16:29;23.90;15.30
19908;DHT22;10116;53.112;7.356;2022-12-10T05:18:56;23.90;15.40
19908;DHT22;10116;53.112;7.356;2022-12-10T05:21:24;23.90;15.40
19908;DHT22;10116;53.112;7.356;2022-12-10T05:23:52;23.90;15.10
19908;DHT22;10116;53.112;7.356;2022-12-10T05:26:20;23.90;15.10
19908;DHT22;10116;53.112;7.356;2022-12-10T05:28:53;23.90;14.60
19908;DHT22;10116;53.112;7.356;2022-12-10T05:31:25;23.90;14.80
19908;DHT22;10116;53.112;7.356;2022-12-10T05:33:52;23.90;14.50
19908;DHT22;10116;53.112;7.356;2022-12-10T05:36:20;23.80;14.50
19908;DHT22;10116;53.112;7.356;2022-12-10T05:38:46;23.80;14.40
19908;DHT22;10116;53.112;7.356;2022-12-10T05:43:39;23.80;14.00
19908;DHT22;10116;53.112;7.356;2022-12-10T05:46:07;23.80;13.90
19908;DHT22;10116;53.112;7.356;2022-12-10T05:48:33;23.80;13.80
19908;DHT22;10116;53.112;7.356;2022-12-10T05:51:07;23.80;13.70
19908;DHT22;10116;53.112;7.356;2022-12-10T05:53:34;23.80;14.10
19908;DHT22;10116;53.112;7.356;2022-12-10T05:56:01;23.80;13.60
19908;DHT22;10116;53.112;7.356;2022-12-10T05:58:28;23.90;14.30
19908;DHT22;10116;53.112;7.356;2022-12-10T06:00:55;23.90;14.40
19908;DHT22;10116;53.112;7.356;2022-12-10T06:03:21;23.90;14.40
19908;DHT22;10116;53.112;7.356;2022-12-10T06:05:46;24.00;14.80
19908;DHT22;10116;53.112;7.356;2022-12-10T06:08:12;24.00;15.10
19908;DHT22;10116;53.112;7.356;2022-12-10T06:10:38;24.00;15.20
19908;DHT22;10116;53.112;7.356;2022-12-10T06:13:04;23.90;14.70
19908;DHT22;10116;53.112;7.356;2022-12-10T06:15:31;24.00;14.70
19908;DHT22;10116;53.112;7.356;2022-12-10T06:17:58;24.00;14.80
19908;DHT22;10116;53.112;7.356;2022-12-10T06:20:25;24.00;15.10
19908;DHT22;10116;53.112;7.356;2022-12-10T06:22:51;24.00;14.80
19908;DHT22;10116;53.112;7.356;2022-12-10T06:25:18;24.00;14.60
19908;DHT22;10116;53.112;7.356;2022-12-10T06:27:44;24.00;14.60
19908;DHT22;10116;53.112;7.356;2022-12-10T06:30:10;24.00;15.20
19908;DHT22;10116;53.112;7.356;2022-12-10T06:32:36;24.00;14.30
19908;DHT22;10116;53.112;7.356;2022-12-10T06:35:02;24.00;14.70
19908;DHT22;10116;53.112;7.356;2022-12-10T06:37:28;24.00;14.00
19908;DHT22;10116;53.112;7.356;2022-12-10T06:39:53;23.90;14.00
19908;DHT22;10116;53.112;7.356;2022-12-10T06:42:19;23.90;23.30
19908;DHT22;10116;53.112;7.356;2022-12-10T06:44:45;23.90;13.90
19908;DHT22;10116;53.112;7.356;2022-12-10T06:47:12;23.90;13.60
19908;DHT22;10116;53.112;7.356;2022-12-10T06:49:37;23.90;22.70
19908;DHT22;10116;53.112;7.356;2022-12-10T06:52:03;23.90;14.10
19908;DHT22;10116;53.112;7.356;2022-12-10T06:54:29;23.90;14.80
19908;DHT22;10116;53.112;7.356;2022-12-10T06:56:55;23.90;22.90
19908;DHT22;10116;53.112;7.356;2022-12-10T06:59:20;23.90;13.60
19908;DHT22;10116;53.112;7.356;2022-12-10T07:01:46;23.90;13.90
19908;DHT22;10116;53.112;7.356;2022-12-10T07:04:13;23.90;13.50
19908;DHT22;10116;53.112;7.356;2022-12-10T07:06:39;23.90;13.80
19908;DHT22;10116;53.112;7.356;2022-12-10T07:09:05;24.00;14.10
19908;DHT22;10116;53.112;7.356;2022-12-10T07:11:31;24.00;14.10
19908;DHT22;10116;53.112;7.356;2022-12-10T07:13:57;24.00;14.30
19908;DHT22;10116;53.112;7.356;2022-12-10T07:16:26;24.00;14.60
19908;DHT22;10116;53.112;7.356;2022-12-10T07:18:52;24.00;14.20
19908;DHT22;10116;53.112;7.356;2022-12-10T07:23:44;24.10;14.50
19908;DHT22;10116;53.112;7.356;2022-12-10T07:26:10;24.10;14.50
19908;DHT22;10116;53.112;7.356;2022-12-10T07:28:36;24.00;15.10
19908;DHT22;10116;53.112;7.356;2022-12-10T07:31:03;24.10;14.80
19908;DHT22;10116;53.112;7.356;2022-12-10T07:33:29;24.00;14.20
19908;DHT22;10116;53.112;7.356;2022-12-10T07:35:54;24.00;14.50
19908;DHT22;10116;53.112;7.356;2022-12-10T07:38:22;24.00;14.00
19908;DHT22;10116;53.112;7.356;2022-12-10T07:40:48;24.00;14.10
19908;DHT22;10116;53.112;7.356;2022-12-10T07:43:14;24.00;13.80
19908;DHT22;10116;53.112;7.356;2022-12-10T07:45:39;24.00;13.60
19908;DHT22;10116;53.112;7.356;2022-12-10T07:48:05;24.00;13.50
19908;DHT22;10116;53.112;7.356;2022-12-10T07:50:30;24.00;13.10
19908;DHT22;10116;53.112;7.356;2022-12-10T07:52:56;24.00;13.30
19908;DHT22;10116;53.112;7.356;2022-12-10T07:55:22;24.00;13.10
19908;DHT22;10116;53.112;7.356;2022-12-10T07:57:47;24.00;13.80
19908;DHT22;10116;53.112;7.356;2022-12-10T08:00:13;24.00;13.00
19908;DHT22;10116;53.112;7.356;2022-12-10T08:02:39;24.00;12.70
19908;DHT22;10116;53.112;7.356;2022-12-10T08:05:05;24.00;13.20
19908;DHT22;10116;53.112;7.356;2022-12-10T08:07:30;23.90;12.30
19908;DHT22;10116;53.112;7.356;2022-12-10T08:09:56;23.90;12.30
19908;DHT22;10116;53.112;7.356;2022-12-10T08:12:22;23.90;12.40
19908;DHT22;10116;53.112;7.356;2022-12-10T08:14:47;23.90;12.30
19908;DHT22;10116;53.112;7.356;2022-12-10T08:17:13;24.00;13.00
19908;DHT22;10116;53.112;7.356;2022-12-10T08:19:38;24.00;12.90
19908;DHT22;10116;53.112;7.356;2022-12-10T08:22:04;24.00;12.80
19908;DHT22;10116;53.112;7.356;2022-12-10T08:24:29;24.00;13.00
19908;DHT22;10116;53.112;7.356;2022-12-10T08:26:55;24.10;13.00
19908;DHT22;10116;53.112;7.356;2022-12-10T08:29:20;24.00;13.20
19908;DHT22;10116;53.112;7.356;2022-12-10T08:31:46;24.10;13.40
19908;DHT22;10116;53.112;7.356;2022-12-10T08:34:14;24.10;13.10
19908;DHT22;10116;53.112;7.356;2022-12-10T08:36:40;24.10;13.40
19908;DHT22;10116;53.112;7.356;2022-12-10T08:39:06;24.10;13.10
19908;DHT22;10116;53.112;7.356;2022-12-10T08:41:32;24.10;12.80
19908;DHT22;10116;53.112;7.356;2022-12-10T08:43:57;24.00;12.40
19908;DHT22;10116;53.112;7.356;2022-12-10T08:46:23;24.00;11.80
19908;DHT22;10116;53.112;7.356;2022-12-10T08:48:50;23.90;11.70
19908;DHT22;10116;53.112;7.356;2022-12-10T08:51:17;23.90;12.10
19908;DHT22;10116;53.112;7.356;2022-12-10T08:53:44;23.90;12.00
19908;DHT22;10116;53.112;7.356;2022-12-10T08:56:10;23.90;11.80
19908;DHT22;10116;53.112;7.356;2022-12-10T08:58:37;23.90;11.30
19908;DHT22;10116;53.112;7.356;2022-12-10T09:01:07;23.90;11.60
19908;DHT22;10116;53.112;7.356;2022-12-10T09:03:33;23.90;11.10
19908;DHT22;10116;53.112;7.356;2022-12-10T09:06:03;23.90;11.80
19908;DHT22;10116;53.112;7.356;2022-12-10T09:08:28;23.90;11.80
19908;DHT22;10116;53.112;7.356;2022-12-10T09:10:54;23.90;12.10
19908;DHT22;10116;53.112;7.356;2022-12-10T09:13:19;23.90;11.80
19908;DHT22;10116;53.112;7.356;2022-12-10T09:15:52;23.90;12.10
19908;DHT22;10116;53.112;7.356;2022-12-10T09:18:18;24.00;12.80
19908;DHT22;10116;53.112;7.356;2022-12-10T09:20:44;24.00;12.00
19908;DHT22;10116;53.112;7.356;2022-12-10T09:23:10;24.00;12.00
19908;DHT22;10116;53.112;7.356;2022-12-10T09:25:36;24.00;12.20
19908;DHT22;10116;53.112;7.356;2022-12-10T09:28:02;24.00;12.20
19908;DHT22;10116;53.112;7.356;2022-12-10T09:30:27;24.00;12.40
19908;DHT22;10116;53.112;7.356;2022-12-10T09:32:53;24.00;12.00
19908;DHT22;10116;53.112;7.356;2022-12-10T09:35:19;23.90;12.00
19908;DHT22;10116;53.112;7.356;2022-12-10T09:37:44;23.90;12.20
19908;DHT22;10116;53.112;7.356;2022-12-10T09:40:15;23.90;12.40
19908;DHT22;10116;53.112;7.356;2022-12-10T09:45:39;23.80;11.80
19908;DHT22;10116;53.112;7.356;2022-12-10T09:50:53;23.80;12.30
19908;DHT22;10116;53.112;7.356;2022-12-10T09:53:21;23.80;12.80
19908;DHT22;10116;53.112;7.356;2022-12-10T09:55:49;23.70;12.20
19908;DHT22;10116;53.112;7.356;2022-12-10T09:58:22;23.80;11.40
19908;DHT22;10116;53.112;7.356;2022-12-10T10:00:54;23.70;11.40
19908;DHT22;10116;53.112;7.356;2022-12-10T10:03:21;23.70;11.40
19908;DHT22;10116;53.112;7.356;2022-12-10T10:05:51;23.70;11.30
19908;DHT22;10116;53.112;7.356;2022-12-10T10:08:31;23.70;11.20
19908;DHT22;10116;53.112;7.356;2022-12-10T10:10:58;23.70;11.10
19908;DHT22;10116;53.112;7.356;2022-12-10T10:13:34;23.70;11.00
19908;DHT22;10116;53.112;7.356;2022-12-10T10:16:25;23.70;10.50
19908;DHT22;10116;53.112;7.356;2022-12-10T10:18:58;23.60;10.60
19908;DHT22;10116;53.112;7.356;2022-12-10T10:21:37;23.60;10.80
19908;DHT22;10116;53.112;7.356;2022-12-10T10:24:05;23.60;10.40
19908;DHT22;10116;53.112;7.356;2022-12-10T10:26:32;23.60;10.40
19908;DHT22;10116;53.112;7.356;2022-12-10T10:29:04;23.60;10.30
19908;DHT22;10116;53.112;7.356;2022-12-10T10:31:32;23.60;10.30
19908;DHT22;10116;53.112;7.356;2022-12-10T10:34:04;23.60;10.00
19908;DHT22;10116;53.112;7.356;2022-12-10T10:36:35;23.60;10.80
19908;DHT22;10116;53.112;7.356;2022-12-10T10:39:16;23.60;10.20
19908;DHT22;10116;53.112;7.356;2022-12-10T10:41:47;23.50;10.20
19908;DHT22;10116;53.112;7.356;2022-12-10T10:44:20;23.60;10.10
19908;DHT22;10116;53.112;7.356;2022-12-10T10:46:49;23.60;10.10
19908;DHT22;10116;53.112;7.356;2022-12-10T10:51:47;23.50;10.40
19908;DHT22;10116;53.112;7.356;2022-12-10T10:54:34;23.60;10.50
19908;DHT22;10116;53.112;7.356;2022-12-10T10:57:31;23.50;10.90
19908;DHT22;10116;53.112;7.356;2022-12-10T11:00:19;23.50;10.10
19908;DHT22;10116;53.112;7.356;2022-12-10T11:02:45;23.60;10.50
19908;DHT22;10116;53.112;7.356;2022-12-10T11:05:25;23.60;10.30
19908;DHT22;10116;53.112;7.356;2022-12-10T11:08:06;23.60;11.10
19908;DHT22;10116;53.112;7.356;2022-12-10T11:10:50;23.70;11.40
19908;DHT22;10116;53.112;7.356;2022-12-10T11:13:26;23.70;11.60
19908;DHT22;10116;53.112;7.356;2022-12-10T11:16:02;23.80;12.10
19908;DHT22;10116;53.112;7.356;2022-12-10T11:18:37;23.80;12.30
19908;DHT22;10116;53.112;7.356;2022-12-10T11:23:51;23.90;12.70
19908;DHT22;10116;53.112;7.356;2022-12-10T11:48:41;23.90;12.40
19908;DHT22;10116;53.112;7.356;2022-12-10T11:54:11;23.90;12.20
19908;DHT22;10116;53.112;7.356;2022-12-10T11:56:43;23.90;12.50
19908;DHT22;10116;53.112;7.356;2022-12-10T11:59:27;23.90;12.60
19908;DHT22;10116;53.112;7.356;2022-12-10T12:13:17;23.90;12.10
19908;DHT22;10116;53.112;7.356;2022-12-10T12:15:59;23.80;11.70
19908;DHT22;10116;53.112;7.356;2022-12-10T12:18:40;23.90;12.00
19908;DHT22;10116;53.112;7.356;2022-12-10T12:21:14;23.90;12.50
19908;DHT22;10116;53.112;7.356;2022-12-10T12:23:55;24.00;12.60
19908;DHT22;10116;53.112;7.356;2022-12-10T12:26:34;24.00;13.10
19908;DHT22;10116;53.112;7.356;2022-12-10T12:29:21;24.00;12.90
19908;DHT22;10116;53.112;7.356;2022-12-10T12:32:08;24.00;13.40
19908;DHT22;10116;53.112;7.356;2022-12-10T12:34:44;24.00;13.30
19908;DHT22;10116;53.112;7.356;2022-12-10T12:37:20;24.00;13.30
19908;DHT22;10116;53.112;7.356;2022-12-10T12:43:19;24.10;13.20
19908;DHT22;10116;53.112;7.356;2022-12-10T12:45:48;24.00;13.50
19908;DHT22;10116;53.112;7.356;2022-12-10T12:51:09;24.00;12.90
19908;DHT22;10116;53.112;7.356;2022-12-10T12:53:35;24.00;12.90
19908;DHT22;10116;53.112;7.356;2022-12-10T13:04:01;24.00;12.40
19908;DHT22;10116;53.112;7.356;2022-12-10T13:06:33;24.00;12.20
19908;DHT22;10116;53.112;7.356;2022-12-10T13:11:38;24.00;12.30
19908;DHT22;10116;53.112;7.356;2022-12-10T13:22:05;24.00;12.40
19908;DHT22;10116;53.112;7.356;2022-12-10T13:37:37;23.90;11.20
19908;DHT22;10116;53.112;7.356;2022-12-10T13:49:20;23.80;11.00
19908;DHT22;10116;53.112;7.356;2022-12-10T13:54:41;23.80;11.10
19908;DHT22;10116;53.112;7.356;2022-12-10T14:09:00;23.70;10.90
19908;DHT22;10116;53.112;7.356;2022-12-10T14:11:31;23.80;10.50
19908;DHT22;10116;53.112;7.356;2022-12-10T14:13:59;23.80;10.40
19908;DHT22;10116;53.112;7.356;2022-12-10T14:16:31;23.80;10.50
19908;DHT22;10116;53.112;7.356;2022-12-10T14:19:07;23.80;11.10
19908;DHT22;10116;53.112;7.356;2022-12-10T14:21:35;23.80;10.50
19908;DHT22;10116;53.112;7.356;2022-12-10T14:24:01;23.80;10.60
19908;DHT22;10116;53.112;7.356;2022-12-10T14:26:30;23.80;11.30
19908;DHT22;10116;53.112;7.356;2022-12-10T14:31:39;23.80;10.70
19908;DHT22;10116;53.112;7.356;2022-12-10T14:34:07;23.80;10.60
19908;DHT22;10116;53.112;7.356;2022-12-10T14:36:37;23.80;10.90
19908;DHT22;10116;53.112;7.356;2022-12-10T14:39:15;23.80;10.80
19908;DHT22;10116;53.112;7.356;2022-12-10T14:41:42;23.80;11.00
19908;DHT22;10116;53.112;7.356;2022-12-10T14:44:12;23.80;10.40
19908;DHT22;10116;53.112;7.356;2022-12-10T14:46:39;23.80;10.60
19908;DHT22;10116;53.112;7.356;2022-12-10T14:49:05;23.80;10.60
19908;DHT22;10116;53.112;7.356;2022-12-10T14:51:36;23.80;10.50
19908;DHT22;10116;53.112;7.356;2022-12-10T14:54:02;23.80;10.20
19908;DHT22;10116;53.112;7.356;2022-12-10T14:56:37;23.80;10.50
19908;DHT22;10116;53.112;7.356;2022-12-10T14:59:25;23.80;10.10
19908;DHT22;10116;53.112;7.356;2022-12-10T15:01:56;23.80;10.60
19908;DHT22;10116;53.112;7.356;2022-12-10T15:04:38;23.80;10.50
19908;DHT22;10116;53.112;7.356;2022-12-10T15:07:05;23.70;9.80
19908;DHT22;10116;53.112;7.356;2022-12-10T15:09:32;23.70;10.00
19908;DHT22;10116;53.112;7.356;2022-12-10T15:11:59;23.70;9.60
19908;DHT22;10116;53.112;7.356;2022-12-10T15:14:27;23.70;10.00
19908;DHT22;10116;53.112;7.356;2022-12-10T15:16:55;23.80;10.30
19908;DHT22;10116;53.112;7.356;2022-12-10T15:22:02;23.80;10.90
19908;DHT22;10116;53.112;7.356;2022-12-10T15:24:40;23.80;10.90
19908;DHT22;10116;53.112;7.356;2022-12-10T15:27:21;23.80;10.60
19908;DHT22;10116;53.112;7.356;2022-12-10T15:29:48;23.80;10.50
19908;DHT22;10116;53.112;7.356;2022-12-10T15:32:19;23.80;10.40
19908;DHT22;10116;53.112;7.356;2022-12-10T15:34:54;23.80;10.80
19908;DHT22;10116;53.112;7.356;2022-12-10T15:37:22;23.80;10.40
19908;DHT22;10116;53.112;7.356;2022-12-10T15:39:56;23.80;10.60
19908;DHT22;10116;53.112;7.356;2022-12-10T15:42:42;23.80;10.30
19908;DHT22;10116;53.112;7.356;2022-12-10T15:45:56;23.80;9.70
19908;DHT22;10116;53.112;7.356;2022-12-10T15:47:58;23.80;9.70
19908;DHT22;10116;53.112;7.356;2022-12-10T15:50:24;23.80;10.00
19908;DHT22;10116;53.112;7.356;2022-12-10T15:52:50;23.80;10.10
19908;DHT22;10116;53.112;7.356;2022-12-10T15:55:17;23.80;9.70
19908;DHT22;10116;53.112;7.356;2022-12-10T15:57:43;23.80;9.70
19908;DHT22;10116;53.112;7.356;2022-12-10T16:00:21;23.80;9.70
19908;DHT22;10116;53.112;7.356;2022-12-10T16:03:11;23.70;9.50
19908;DHT22;10116;53.112;7.356;2022-12-10T16:05:38;23.70;9.10
19908;DHT22;10116;53.112;7.356;2022-12-10T16:08:18;23.70;9.10
19908;DHT22;10116;53.112;7.356;2022-12-10T16:10:44;23.70;9.00
19908;DHT22;10116;53.112;7.356;2022-12-10T16:13:15;23.70;8.60
19908;DHT22;10116;53.112;7.356;2022-12-10T16:15:54;23.70;8.70
19908;DHT22;10116;53.112;7.356;2022-12-10T16:18:22;23.70;9.50
19908;DHT22;10116;53.112;7.356;2022-12-10T16:20:48;23.70;9.00
19908;DHT22;10116;53.112;7.356;2022-12-10T16:23:14;23.70;9.20
19908;DHT22;10116;53.112;7.356;2022-12-10T16:25:41;23.70;9.10
19908;DHT22;10116;53.112;7.356;2022-12-10T16:28:15;23.80;9.60
19908;DHT22;10116;53.112;7.356;2022-12-10T16:30:44;23.70;9.60
19908;DHT22;10116;53.112;7.356;2022-12-10T16:33:10;23.80;10.90
19908;DHT22;10116;53.112;7.356;2022-12-10T16:35:36;23.80;10.20
19908;DHT22;10116;53.112;7.356;2022-12-10T16:38:02;23.90;10.30
19908;DHT22;10116;53.112;7.356;2022-12-10T16:40:28;23.90;11.30
19908;DHT22;10116;53.112;7.356;2022-12-10T16:42:55;23.90;10.60
19908;DHT22;10116;53.112;7.356;2022-12-10T16:45:30;23.90;10.70
19908;DHT22;10116;53.112;7.356;2022-12-10T16:47:57;23.90;10.80
19908;DHT22;10116;53.112;7.356;2022-12-10T16:50:23;23.90;11.20
19908;DHT22;10116;53.112;7.356;2022-12-10T16:52:49;23.90;10.80
19908;DHT22;10116;53.112;7.356;2022-12-10T16:55:18;24.00;11.20
19908;DHT22;10116;53.112;7.356;2022-12-10T16:57:44;24.00;11.30
19908;DHT22;10116;53.112;7.356;2022-12-10T17:00:16;24.00;11.00
19908;DHT22;10116;53.112;7.356;2022-12-10T17:02:43;23.90;11.30
19908;DHT22;10116;53.112;7.356;2022-12-10T17:05:26;24.00;11.10
19908;DHT22;10116;53.112;7.356;2022-12-10T17:07:52;23.90;11.30
19908;DHT22;10116;53.112;7.356;2022-12-10T17:10:18;23.90;10.80
19908;DHT22;10116;53.112;7.356;2022-12-10T17:13:04;23.90;10.70
19908;DHT22;10116;53.112;7.356;2022-12-10T17:15:29;23.90;10.70
19908;DHT22;10116;53.112;7.356;2022-12-10T17:17:55;23.90;10.70
19908;DHT22;10116;53.112;7.356;2022-12-10T17:20:21;23.90;10.50
19908;DHT22;10116;53.112;7.356;2022-12-10T17:22:46;23.90;19.90
19908;DHT22;10116;53.112;7.356;2022-12-10T17:25:12;23.90;10.30
19908;DHT22;10116;53.112;7.356;2022-12-10T17:27:38;23.90;10.40
19908;DHT22;10116;53.112;7.356;2022-12-10T17:30:04;23.90;10.90
19908;DHT22;10116;53.112;7.356;2022-12-10T17:32:30;23.90;11.20
19908;DHT22;10116;53.112;7.356;2022-12-10T17:34:57;23.90;11.40
19908;DHT22;10116;53.112;7.356;2022-12-10T17:37:25;24.00;11.60
19908;DHT22;10116;53.112;7.356;2022-12-10T17:39:51;24.00;12.20
19908;DHT22;10116;53.112;7.356;2022-12-10T17:42:16;24.00;13.10
19908;DHT22;10116;53.112;7.356;2022-12-10T17:44:42;24.00;13.00
19908;DHT22;10116;53.112;7.356;2022-12-10T17:47:24;24.00;13.00
19908;DHT22;10116;53.112;7.356;2022-12-10T17:49:50;24.00;13.00
19908;DHT22;10116;53.112;7.356;2022-12-10T17:52:16;24.00;13.60
19908;DHT22;10116;53.112;7.356;2022-12-10T17:54:42;24.00;13.60
19908;DHT22;10116;53.112;7.356;2022-12-10T17:57:14;24.00;14.10
19908;DHT22;10116;53.112;7.356;2022-12-10T17:59:40;24.00;13.50
19908;DHT22;10116;53.112;7.356;2022-12-10T18:02:09;24.00;13.80
19908;DHT22;10116;53.112;7.356;2022-12-10T18:04:35;24.00;13.80
19908;DHT22;10116;53.112;7.356;2022-12-10T18:07:00;24.00;14.40